createdAt,value
2016-10-29T00:00:14.956Z,934.76
2016-10-29T00:01:15.010Z,934.74
2016-10-29T00:02:15.055Z,934.75
2016-10-29T00:03:15.109Z,934.79
2016-10-29T00:04:15.153Z,934.81
2016-10-29T00:05:15.217Z,934.82
2016-10-29T00:06:15.247Z,934.82
2016-10-29T00:07:15.295Z,934.9
2016-10-29T00:08:15.365Z,934.92
2016-10-29T00:09:15.397Z,934.9
2016-10-29T00:10:15.446Z,934.94
2016-10-29T00:11:15.496Z,935
2016-10-29T00:12:15.545Z,935.02
2016-10-29T00:13:15.596Z,935.06
2016-10-29T00:14:15.645Z,935.08
2016-10-29T00:15:15.706Z,935.09
2016-10-29T00:16:15.735Z,935.06
2016-10-29T00:17:15.777Z,935.11
2016-10-29T00:18:15.901Z,935.14
2016-10-29T00:19:15.892Z,935.21
2016-10-29T00:20:16.072Z,935.19
2016-10-29T00:21:16.048Z,935.28
2016-10-29T00:22:16.048Z,935.28
2016-10-29T00:23:16.118Z,935.23
2016-10-29T00:24:16.147Z,935.24
2016-10-29T00:25:16.270Z,935.22
2016-10-29T00:26:16.230Z,935.24
2016-10-29T00:27:16.276Z,935.27
2016-10-29T00:28:16.329Z,935.24
2016-10-29T00:29:16.376Z,935.26
2016-10-29T00:30:16.455Z,935.29
2016-10-29T00:31:16.472Z,935.31
2016-10-29T00:32:16.541Z,935.32
2016-10-29T00:33:16.584Z,935.35
2016-10-29T00:34:16.616Z,935.31
2016-10-29T00:35:16.710Z,935.33
2016-10-29T00:36:16.780Z,935.29
2016-10-29T00:37:16.756Z,935.33
2016-10-29T00:38:16.837Z,935.39
2016-10-29T00:39:16.857Z,935.34
2016-10-29T00:40:16.912Z,935.33
2016-10-29T00:41:16.996Z,935.38
2016-10-29T00:42:17.051Z,935.44
2016-10-29T00:43:17.081Z,935.41
2016-10-29T00:44:17.099Z,935.47
2016-10-29T00:45:17.156Z,935.35
2016-10-29T00:46:17.196Z,935.31
2016-10-29T00:47:17.322Z,935.31
2016-10-29T00:48:17.321Z,935.32
2016-10-29T00:49:17.363Z,935.35
2016-10-29T00:50:17.403Z,935.38
2016-10-29T00:51:17.444Z,935.36
2016-10-29T00:52:17.498Z,935.43
2016-10-29T00:53:17.565Z,935.41
2016-10-29T00:54:17.586Z,935.4
2016-10-29T00:55:17.648Z,935.33
2016-10-29T00:56:17.693Z,935.32
2016-10-29T00:57:17.761Z,935.38
2016-10-29T00:58:17.791Z,935.35
2016-10-29T00:59:17.846Z,935.29
2016-10-29T01:00:17.903Z,935.38
2016-10-29T01:01:18.078Z,935.43
2016-10-29T01:02:18.049Z,935.42
2016-10-29T01:03:18.041Z,935.49
2016-10-29T01:04:18.091Z,935.46
2016-10-29T01:05:18.145Z,935.43
2016-10-29T01:06:18.179Z,935.48
2016-10-29T01:07:18.235Z,935.49
2016-10-29T01:08:18.272Z,935.47
2016-10-29T01:09:18.391Z,935.46
2016-10-29T01:10:18.377Z,935.42
2016-10-29T01:11:18.425Z,935.43
2016-10-29T01:12:18.498Z,935.39
2016-10-29T01:13:18.528Z,935.38
2016-10-29T01:14:18.578Z,935.37
2016-10-29T01:15:18.629Z,935.41
2016-10-29T01:16:18.682Z,935.41
2016-10-29T01:17:18.735Z,935.36
2016-10-29T01:18:18.763Z,935.42
2016-10-29T01:19:18.820Z,935.4
2016-10-29T01:20:18.863Z,935.42
2016-10-29T01:21:18.977Z,935.46
2016-10-29T01:22:18.985Z,935.42
2016-10-29T01:23:19.014Z,935.42
2016-10-29T01:24:19.065Z,935.41
2016-10-29T01:25:19.136Z,935.41
2016-10-29T01:26:19.194Z,935.52
2016-10-29T01:27:19.217Z,935.45
2016-10-29T01:28:19.261Z,935.44
2016-10-29T01:29:19.342Z,935.39
2016-10-29T01:30:19.364Z,935.48
2016-10-29T01:31:19.406Z,935.46
2016-10-29T01:32:19.562Z,935.45
2016-10-29T01:33:19.505Z,935.49
2016-10-29T01:34:19.550Z,935.46
2016-10-29T01:35:19.610Z,935.5
2016-10-29T01:36:19.683Z,935.47
2016-10-29T01:37:19.713Z,935.59
2016-10-29T01:38:19.783Z,935.51
2016-10-29T01:39:19.799Z,935.54
2016-10-29T01:40:19.850Z,935.54
2016-10-29T01:41:19.926Z,935.55
2016-10-29T01:42:19.938Z,935.53
2016-10-29T01:43:19.988Z,935.5
2016-10-29T01:44:20.027Z,935.5
2016-10-29T01:45:20.081Z,935.49
2016-10-29T01:46:20.130Z,935.58
2016-10-29T01:47:20.181Z,935.45
2016-10-29T01:48:20.226Z,935.42
2016-10-29T01:49:20.272Z,935.46
2016-10-29T01:50:20.364Z,935.44
2016-10-29T01:51:20.383Z,935.51
2016-10-29T01:52:20.439Z,935.5
2016-10-29T01:53:20.475Z,935.55
2016-10-29T01:54:20.526Z,935.51
2016-10-29T01:55:20.580Z,935.54
2016-10-29T01:56:20.658Z,935.57
2016-10-29T01:57:20.659Z,935.56
2016-10-29T01:58:20.731Z,935.6
2016-10-29T01:59:20.785Z,935.56
2016-10-29T02:00:20.831Z,935.57
2016-10-29T02:01:20.884Z,935.57
2016-10-29T02:02:20.910Z,935.59
2016-10-29T02:03:20.968Z,935.56
2016-10-29T02:04:21.018Z,935.52
2016-10-29T02:05:21.074Z,935.55
2016-10-29T02:06:21.147Z,935.59
2016-10-29T02:07:21.146Z,935.56
2016-10-29T02:08:21.309Z,935.69
2016-10-29T02:09:21.318Z,935.61
2016-10-29T02:10:21.303Z,935.66
2016-10-29T02:11:21.371Z,935.66
2016-10-29T02:12:21.419Z,935.75
2016-10-29T02:13:21.452Z,935.67
2016-10-29T02:14:21.508Z,935.69
2016-10-29T02:15:21.552Z,935.66
2016-10-29T02:16:21.612Z,935.61
2016-10-29T02:17:21.635Z,935.66
2016-10-29T02:18:21.713Z,935.61
2016-10-29T02:19:21.757Z,935.58
2016-10-29T02:20:21.830Z,935.63
2016-10-29T02:21:21.850Z,935.55
2016-10-29T02:22:21.880Z,935.58
2016-10-29T02:23:21.954Z,935.65
2016-10-29T02:24:22.055Z,935.57
2016-10-29T02:25:22.042Z,935.7
2016-10-29T02:26:22.089Z,935.74
2016-10-29T02:27:22.132Z,935.85
2016-10-29T02:28:22.246Z,935.7
2016-10-29T02:29:22.230Z,935.71
2016-10-29T02:30:22.271Z,935.67
2016-10-29T02:31:22.365Z,935.65
2016-10-29T02:32:22.371Z,935.73
2016-10-29T02:33:22.426Z,935.7
2016-10-29T02:34:22.471Z,935.68
2016-10-29T02:35:22.518Z,935.77
2016-10-29T02:36:22.571Z,935.68
2016-10-29T02:37:22.681Z,935.68
2016-10-29T02:38:22.668Z,935.66
2016-10-29T02:39:22.734Z,935.7
2016-10-29T02:40:22.765Z,935.67
2016-10-29T02:41:22.821Z,935.65
2016-10-29T02:42:22.863Z,935.73
2016-10-29T02:43:22.901Z,935.63
2016-10-29T02:44:23.054Z,935.6
2016-10-29T02:45:22.998Z,935.71
2016-10-29T02:46:23.049Z,935.65
2016-10-29T02:47:23.095Z,935.61
2016-10-29T02:48:23.167Z,935.72
2016-10-29T02:49:23.203Z,935.64
2016-10-29T02:50:23.256Z,935.66
2016-10-29T02:51:23.304Z,935.62
2016-10-29T02:52:23.352Z,935.58
2016-10-29T02:53:23.389Z,935.61
2016-10-29T02:54:23.445Z,935.6
2016-10-29T02:55:23.486Z,935.6
2016-10-29T02:56:23.542Z,935.61
2016-10-29T02:57:23.591Z,935.61
2016-10-29T02:58:23.632Z,935.62
2016-10-29T02:59:23.689Z,935.63
2016-10-29T03:00:23.742Z,935.64
2016-10-29T03:01:23.791Z,935.64
2016-10-29T03:02:23.830Z,935.66
2016-10-29T03:03:23.890Z,935.63
2016-10-29T03:04:23.924Z,935.61
2016-10-29T03:05:24.003Z,935.64
2016-10-29T03:06:24.030Z,935.59
2016-10-29T03:07:24.069Z,935.63
2016-10-29T03:08:24.120Z,935.61
2016-10-29T03:09:24.174Z,935.56
2016-10-29T03:10:24.240Z,935.6
2016-10-29T03:11:24.278Z,935.63
2016-10-29T03:12:24.338Z,935.54
2016-10-29T03:13:24.369Z,935.62
2016-10-29T03:14:24.413Z,935.56
2016-10-29T03:15:24.470Z,935.58
2016-10-29T03:16:24.517Z,935.63
2016-10-29T03:17:24.576Z,935.63
2016-10-29T03:18:24.625Z,935.65
2016-10-29T03:19:24.682Z,935.65
2016-10-29T03:20:24.808Z,935.63
2016-10-29T03:21:24.764Z,935.67
2016-10-29T03:22:24.806Z,935.62
2016-10-29T03:23:24.860Z,935.61
2016-10-29T03:24:24.907Z,935.63
2016-10-29T03:25:24.990Z,935.59
2016-10-29T03:26:25.000Z,935.61
2016-10-29T03:27:25.053Z,935.56
2016-10-29T03:28:25.090Z,935.54
2016-10-29T03:29:25.146Z,935.58
2016-10-29T03:30:25.204Z,935.54
2016-10-29T03:31:25.289Z,935.63
2016-10-29T03:32:25.302Z,935.55
2016-10-29T03:33:25.381Z,935.53
2016-10-29T03:34:25.433Z,935.53
2016-10-29T03:35:25.457Z,935.54
2016-10-29T03:36:25.532Z,935.53
2016-10-29T03:37:25.540Z,935.5
2016-10-29T03:38:25.593Z,935.57
2016-10-29T03:39:25.626Z,935.65
2016-10-29T03:40:25.707Z,935.52
2016-10-29T03:41:25.737Z,935.56
2016-10-29T03:42:25.788Z,935.49
2016-10-29T03:43:25.857Z,935.48
2016-10-29T03:44:25.870Z,935.5
2016-10-29T03:45:25.936Z,935.44
2016-10-29T03:46:25.982Z,935.52
2016-10-29T03:47:26.090Z,935.5
2016-10-29T03:48:26.139Z,935.48
2016-10-29T03:49:26.115Z,935.48
2016-10-29T03:50:26.176Z,935.38
2016-10-29T03:51:26.286Z,935.45
2016-10-29T03:52:26.334Z,935.5
2016-10-29T03:53:26.310Z,935.42
2016-10-29T03:54:26.379Z,935.41
2016-10-29T03:55:26.407Z,935.44
2016-10-29T03:56:26.581Z,935.37
2016-10-29T03:57:26.534Z,935.42
2016-10-29T03:58:26.566Z,935.39
2016-10-29T03:59:26.599Z,935.35
2016-10-29T04:00:26.660Z,935.36
2016-10-29T04:01:26.716Z,935.38
2016-10-29T04:02:26.775Z,935.35
2016-10-29T04:03:26.818Z,935.31
2016-10-29T04:04:26.853Z,935.34
2016-10-29T04:05:26.894Z,935.3
2016-10-29T04:06:26.950Z,935.33
2016-10-29T04:07:27.003Z,935.33
2016-10-29T04:08:27.044Z,935.35
2016-10-29T04:09:27.132Z,935.26
2016-10-29T04:10:27.142Z,935.25
2016-10-29T04:11:27.230Z,935.27
2016-10-29T04:12:27.258Z,935.26
2016-10-29T04:13:27.306Z,935.26
2016-10-29T04:14:27.385Z,935.23
2016-10-29T04:15:27.380Z,935.24
2016-10-29T04:16:27.447Z,935.28
2016-10-29T04:17:27.498Z,935.24
2016-10-29T04:18:27.535Z,935.18
2016-10-29T04:19:27.590Z,935.15
2016-10-29T04:20:27.632Z,935.11
2016-10-29T04:21:27.686Z,935.15
2016-10-29T04:22:27.735Z,935.06
2016-10-29T04:23:27.778Z,935.09
2016-10-29T04:24:27.831Z,935.07
2016-10-29T04:25:27.875Z,935.08
2016-10-29T04:26:27.930Z,935.01
2016-10-29T04:27:28.072Z,935.05
2016-10-29T04:28:28.016Z,935.02
2016-10-29T04:29:28.073Z,935.02
2016-10-29T04:30:28.121Z,935.01
2016-10-29T04:31:28.209Z,934.95
2016-10-29T04:32:28.279Z,934.98
2016-10-29T04:33:28.278Z,934.97
2016-10-29T04:34:28.329Z,934.98
2016-10-29T04:35:28.367Z,934.99
2016-10-29T04:36:28.402Z,935.01
2016-10-29T04:37:28.463Z,934.99
2016-10-29T04:38:28.547Z,934.97
2016-10-29T04:39:28.555Z,934.98
2016-10-29T04:40:28.593Z,934.96
2016-10-29T04:41:28.646Z,934.99
2016-10-29T04:42:28.701Z,934.97
2016-10-29T04:43:28.819Z,934.96
2016-10-29T04:44:28.834Z,934.96
2016-10-29T04:45:28.887Z,934.94
2016-10-29T04:46:28.886Z,935
2016-10-29T04:47:29.008Z,935.04
2016-10-29T04:48:28.993Z,934.98
2016-10-29T04:49:29.040Z,935.02
2016-10-29T04:50:29.078Z,935.05
2016-10-29T04:51:29.145Z,935.05
2016-10-29T04:52:29.187Z,935.03
2016-10-29T04:53:29.298Z,934.98
2016-10-29T04:54:29.348Z,934.95
2016-10-29T04:55:29.338Z,934.97
2016-10-29T04:56:29.381Z,934.98
2016-10-29T04:57:29.492Z,934.91
2016-10-29T04:58:29.573Z,934.87
2016-10-29T04:59:29.550Z,934.91
2016-10-29T05:00:29.610Z,934.94
2016-10-29T05:01:29.618Z,934.88
2016-10-29T05:02:29.706Z,934.88
2016-10-29T05:03:29.715Z,934.91
2016-10-29T05:04:29.837Z,934.94
2016-10-29T05:05:29.820Z,934.92
2016-10-29T05:06:29.874Z,934.89
2016-10-29T05:07:29.950Z,934.9
2016-10-29T05:08:29.977Z,934.88
2016-10-29T05:09:30.004Z,934.85
2016-10-29T05:10:30.048Z,934.89
2016-10-29T05:11:30.106Z,934.9
2016-10-29T05:12:30.169Z,934.86
2016-10-29T05:13:30.199Z,934.9
2016-10-29T05:14:30.251Z,934.82
2016-10-29T05:15:30.338Z,934.89
2016-10-29T05:16:30.349Z,934.88
2016-10-29T05:17:30.393Z,934.8
2016-10-29T05:18:30.491Z,934.9
2016-10-29T05:19:30.498Z,934.87
2016-10-29T05:20:30.547Z,934.78
2016-10-29T05:21:30.607Z,934.79
2016-10-29T05:22:30.703Z,934.8
2016-10-29T05:23:30.703Z,934.75
2016-10-29T05:24:30.738Z,934.83
2016-10-29T05:25:30.804Z,934.78
2016-10-29T05:26:30.837Z,934.76
2016-10-29T05:27:30.888Z,934.69
2016-10-29T05:28:30.932Z,934.74
2016-10-29T05:29:31.080Z,934.69
2016-10-29T05:30:31.064Z,934.78
2016-10-29T05:31:31.105Z,934.63
2016-10-29T05:32:31.132Z,934.66
2016-10-29T05:33:31.181Z,934.61
2016-10-29T05:34:31.224Z,934.67
2016-10-29T05:35:31.277Z,934.7
2016-10-29T05:36:31.383Z,934.7
2016-10-29T05:37:31.372Z,934.69
2016-10-29T05:38:31.411Z,934.76
2016-10-29T05:39:31.470Z,934.73
2016-10-29T05:40:31.553Z,934.72
2016-10-29T05:41:31.566Z,934.66
2016-10-29T05:42:31.635Z,934.72
2016-10-29T05:43:31.703Z,934.77
2016-10-29T05:44:31.713Z,934.78
2016-10-29T05:45:31.747Z,934.79
2016-10-29T05:46:31.806Z,934.75
2016-10-29T05:47:31.847Z,934.7
2016-10-29T05:48:31.893Z,934.79
2016-10-29T05:49:31.941Z,934.65
2016-10-29T05:50:31.993Z,934.66
2016-10-29T05:51:32.041Z,934.7
2016-10-29T05:52:32.104Z,934.68
2016-10-29T05:53:32.181Z,934.68
2016-10-29T05:54:32.199Z,934.67
2016-10-29T05:55:32.247Z,934.69
2016-10-29T05:56:32.282Z,934.66
2016-10-29T05:57:32.339Z,934.65
2016-10-29T05:58:32.391Z,934.71
2016-10-29T05:59:32.500Z,934.67
2016-10-29T06:00:32.580Z,934.67
2016-10-29T06:01:32.533Z,934.67
2016-10-29T06:02:32.577Z,934.67
2016-10-29T06:03:32.620Z,934.64
2016-10-29T06:04:32.683Z,934.71
2016-10-29T06:05:32.728Z,934.69
2016-10-29T06:06:32.765Z,934.68
2016-10-29T06:07:32.889Z,934.66
2016-10-29T06:08:32.911Z,934.63
2016-10-29T06:09:32.959Z,934.62
2016-10-29T06:10:32.962Z,934.67
2016-10-29T06:11:33.089Z,934.61
2016-10-29T06:12:33.062Z,934.63
2016-10-29T06:13:33.120Z,934.65
2016-10-29T06:14:33.179Z,934.67
2016-10-29T06:15:33.232Z,934.62
2016-10-29T06:16:33.280Z,934.66
2016-10-29T06:17:33.335Z,934.63
2016-10-29T06:18:33.362Z,934.63
2016-10-29T06:19:33.404Z,934.68
2016-10-29T06:20:33.523Z,934.7
2016-10-29T06:21:33.497Z,934.69
2016-10-29T06:22:33.559Z,934.65
2016-10-29T06:23:33.612Z,934.71
2016-10-29T06:24:33.645Z,934.73
2016-10-29T06:25:33.767Z,934.67
2016-10-29T06:26:33.742Z,934.76
2016-10-29T06:27:33.809Z,934.82
2016-10-29T06:28:33.851Z,934.81
2016-10-29T06:29:33.912Z,934.78
2016-10-29T06:30:33.951Z,934.81
2016-10-29T06:31:34.100Z,934.82
2016-10-29T06:32:34.034Z,934.79
2016-10-29T06:33:34.087Z,934.74
2016-10-29T06:34:34.133Z,934.83
2016-10-29T06:35:34.194Z,934.86
2016-10-29T06:36:34.235Z,934.83
2016-10-29T06:37:34.277Z,934.83
2016-10-29T06:38:34.351Z,934.86
2016-10-29T06:39:34.393Z,934.87
2016-10-29T06:40:34.423Z,934.81
2016-10-29T06:41:34.477Z,934.91
2016-10-29T06:42:34.527Z,934.87
2016-10-29T06:43:34.588Z,934.88
2016-10-29T06:44:34.627Z,934.85
2016-10-29T06:45:34.678Z,934.86
2016-10-29T06:46:34.716Z,934.91
2016-10-29T06:47:34.785Z,934.81
2016-10-29T06:48:34.823Z,934.95
2016-10-29T06:49:34.880Z,934.96
2016-10-29T06:50:34.935Z,934.95
2016-10-29T06:51:34.969Z,935
2016-10-29T06:52:35.007Z,934.94
2016-10-29T06:53:35.076Z,934.99
2016-10-29T06:54:35.129Z,934.98
2016-10-29T06:55:35.153Z,934.99
2016-10-29T06:56:35.208Z,935.01
2016-10-29T06:57:35.269Z,935.07
2016-10-29T06:58:35.314Z,935.03
2016-10-29T06:59:35.371Z,935.01
2016-10-29T07:00:35.465Z,935.01
2016-10-29T07:01:35.465Z,934.94
2016-10-29T07:02:35.589Z,935.04
2016-10-29T07:03:35.536Z,935
2016-10-29T07:04:35.600Z,935.04
2016-10-29T07:05:35.655Z,934.99
2016-10-29T07:06:35.711Z,935.04
2016-10-29T07:07:35.733Z,934.94
2016-10-29T07:08:35.814Z,934.99
2016-10-29T07:09:35.859Z,934.94
2016-10-29T07:10:35.887Z,934.95
2016-10-29T07:11:35.950Z,934.99
2016-10-29T07:12:35.998Z,934.97
2016-10-29T07:13:36.036Z,934.99
2016-10-29T07:14:36.142Z,934.99
2016-10-29T07:15:36.144Z,935
2016-10-29T07:16:36.194Z,935
2016-10-29T07:17:36.216Z,934.99
2016-10-29T07:18:36.274Z,934.9
2016-10-29T07:19:36.324Z,934.9
2016-10-29T07:20:36.379Z,934.91
2016-10-29T07:21:36.411Z,934.93
2016-10-29T07:22:36.462Z,934.94
2016-10-29T07:23:36.551Z,934.92
2016-10-29T07:24:36.627Z,934.9
2016-10-29T07:25:36.617Z,934.93
2016-10-29T07:26:36.656Z,934.95
2016-10-29T07:27:36.704Z,934.99
2016-10-29T07:28:36.768Z,934.96
2016-10-29T07:29:36.841Z,934.97
2016-10-29T07:30:36.873Z,934.97
2016-10-29T07:31:36.906Z,934.96
2016-10-29T07:32:36.969Z,934.97
2016-10-29T07:33:37.115Z,934.98
2016-10-29T07:34:37.086Z,935.04
2016-10-29T07:35:37.085Z,935
2016-10-29T07:36:37.144Z,935.05
2016-10-29T07:37:37.200Z,935.05
2016-10-29T07:38:37.333Z,935.05
2016-10-29T07:39:37.309Z,935.05
2016-10-29T07:40:37.337Z,935.02
2016-10-29T07:41:37.379Z,935.06
2016-10-29T07:42:37.447Z,935.06
2016-10-29T07:43:37.492Z,935.08
2016-10-29T07:44:37.536Z,935.06
2016-10-29T07:45:37.593Z,935.07
2016-10-29T07:46:37.632Z,935.08
2016-10-29T07:47:37.694Z,935.02
2016-10-29T07:48:37.734Z,935.01
2016-10-29T07:49:37.778Z,935.04
2016-10-29T07:50:37.819Z,935
2016-10-29T07:51:37.873Z,935.05
2016-10-29T07:52:37.918Z,935.04
2016-10-29T07:53:37.973Z,935.08
2016-10-29T07:54:38.038Z,935.05
2016-10-29T07:55:38.088Z,935.11
2016-10-29T07:56:38.112Z,935.1
2016-10-29T07:57:38.168Z,935.12
2016-10-29T07:58:38.231Z,935.12
2016-10-29T07:59:38.266Z,935.15
2016-10-29T08:00:38.309Z,935.15
2016-10-29T08:01:38.381Z,935.15
2016-10-29T08:02:38.426Z,935.15
2016-10-29T08:03:38.470Z,935.17
2016-10-29T08:04:38.507Z,935.2
2016-10-29T08:05:38.558Z,935.18
2016-10-29T08:06:38.603Z,935.18
2016-10-29T08:07:38.654Z,935.22
2016-10-29T08:08:38.718Z,935.22
2016-10-29T08:09:38.766Z,935.24
2016-10-29T08:10:38.806Z,935.22
2016-10-29T08:11:38.848Z,935.23
2016-10-29T08:12:38.887Z,935.21
2016-10-29T08:13:38.960Z,935.23
2016-10-29T08:14:39.090Z,935.26
2016-10-29T08:15:39.061Z,935.26
2016-10-29T08:16:39.094Z,935.33
2016-10-29T08:17:39.131Z,935.35
2016-10-29T08:18:39.188Z,935.37
2016-10-29T08:19:39.231Z,935.37
2016-10-29T08:20:39.286Z,935.33
2016-10-29T08:21:39.358Z,935.37
2016-10-29T08:22:39.374Z,935.4
2016-10-29T08:23:39.449Z,935.44
2016-10-29T08:24:39.484Z,935.44
2016-10-29T08:25:39.535Z,935.43
2016-10-29T08:26:39.596Z,935.47
2016-10-29T08:27:39.639Z,935.52
2016-10-29T08:28:39.672Z,935.51
2016-10-29T08:29:39.716Z,935.46
2016-10-29T08:30:39.771Z,935.5
2016-10-29T08:31:39.829Z,935.53
2016-10-29T08:32:39.871Z,935.55
2016-10-29T08:33:39.923Z,935.52
2016-10-29T08:34:39.967Z,935.57
2016-10-29T08:35:40.008Z,935.56
2016-10-29T08:36:40.079Z,935.62
2016-10-29T08:37:40.129Z,935.59
2016-10-29T08:38:40.153Z,935.6
2016-10-29T08:39:40.218Z,935.59
2016-10-29T08:40:40.374Z,935.59
2016-10-29T08:41:40.322Z,935.63
2016-10-29T08:42:40.357Z,935.61
2016-10-29T08:43:40.394Z,935.59
2016-10-29T08:44:40.442Z,935.6
2016-10-29T08:45:40.517Z,935.59
2016-10-29T08:46:40.538Z,935.63
2016-10-29T08:47:40.586Z,935.64
2016-10-29T08:48:40.636Z,935.68
2016-10-29T08:49:40.718Z,935.64
2016-10-29T08:50:40.740Z,935.71
2016-10-29T08:51:40.798Z,935.7
2016-10-29T08:52:40.831Z,935.67
2016-10-29T08:53:40.898Z,935.7
2016-10-29T08:54:40.947Z,935.68
2016-10-29T08:55:41.003Z,935.74
2016-10-29T08:56:41.040Z,935.74
2016-10-29T08:57:41.080Z,935.7
2016-10-29T08:58:41.138Z,935.72
2016-10-29T08:59:41.174Z,935.76
2016-10-29T09:00:41.243Z,935.94
2016-10-29T09:01:41.274Z,935.79
2016-10-29T09:02:41.332Z,935.74
2016-10-29T09:03:41.377Z,935.78
2016-10-29T09:04:41.417Z,935.84
2016-10-29T09:05:41.493Z,935.84
2016-10-29T09:06:41.628Z,935.83
2016-10-29T09:07:41.579Z,935.89
2016-10-29T09:08:41.645Z,935.86
2016-10-29T09:09:41.681Z,935.87
2016-10-29T09:10:41.726Z,935.88
2016-10-29T09:11:41.760Z,935.87
2016-10-29T09:12:41.814Z,935.85
2016-10-29T09:13:41.872Z,935.83
2016-10-29T09:14:41.939Z,935.9
2016-10-29T09:15:41.954Z,935.9
2016-10-29T09:16:42.023Z,935.88
2016-10-29T09:17:42.082Z,935.86
2016-10-29T09:18:42.135Z,935.86
2016-10-29T09:19:42.166Z,935.89
2016-10-29T09:20:42.231Z,935.88
2016-10-29T09:21:42.271Z,935.9
2016-10-29T09:22:42.304Z,935.87
2016-10-29T09:23:42.369Z,935.94
2016-10-29T09:24:42.423Z,935.95
2016-10-29T09:25:42.488Z,936.04
2016-10-29T09:26:42.502Z,935.92
2016-10-29T09:27:42.580Z,935.98
2016-10-29T09:28:42.623Z,935.98
2016-10-29T09:29:42.669Z,936.03
2016-10-29T09:30:42.724Z,936.08
2016-10-29T09:31:42.760Z,936.1
2016-10-29T09:32:42.810Z,936.08
2016-10-29T09:33:42.876Z,936.16
2016-10-29T09:34:42.913Z,936.13
2016-10-29T09:35:42.996Z,936.12
2016-10-29T09:36:43.033Z,936.15
2016-10-29T09:37:43.097Z,936.15
2016-10-29T09:38:43.145Z,936.14
2016-10-29T09:39:43.189Z,936.12
2016-10-29T09:40:43.237Z,936.13
2016-10-29T09:41:43.298Z,936.11
2016-10-29T09:42:43.348Z,936.16
2016-10-29T09:43:43.414Z,936.18
2016-10-29T09:44:43.456Z,936.17
2016-10-29T09:45:43.525Z,936.18
2016-10-29T09:46:43.567Z,936.16
2016-10-29T09:47:43.720Z,936.18
2016-10-29T09:48:43.669Z,936.21
2016-10-29T09:49:43.747Z,936.26
2016-10-29T09:50:43.773Z,936.31
2016-10-29T09:51:43.826Z,936.29
2016-10-29T09:52:43.869Z,936.29
2016-10-29T09:53:43.924Z,936.4
2016-10-29T09:54:43.967Z,936.35
2016-10-29T09:55:44.025Z,936.33
2016-10-29T09:56:44.092Z,936.3
2016-10-29T09:57:44.143Z,936.34
2016-10-29T09:58:44.165Z,936.28
2016-10-29T09:59:44.218Z,936.33
2016-10-29T10:00:44.279Z,936.37
2016-10-29T10:01:44.344Z,936.39
2016-10-29T10:02:44.379Z,936.33
2016-10-29T10:03:44.453Z,936.42
2016-10-29T10:04:44.486Z,936.34
2016-10-29T10:05:44.537Z,936.38
2016-10-29T10:06:44.597Z,936.42
2016-10-29T10:07:44.628Z,936.43
2016-10-29T10:08:44.698Z,936.42
2016-10-29T10:09:44.742Z,936.39
2016-10-29T10:10:44.800Z,936.42
2016-10-29T10:11:44.865Z,936.44
2016-10-29T10:12:44.927Z,936.45
2016-10-29T10:13:44.951Z,936.53
2016-10-29T10:14:45.022Z,936.51
2016-10-29T10:15:45.067Z,936.44
2016-10-29T10:16:45.097Z,936.47
2016-10-29T10:17:45.165Z,936.47
2016-10-29T10:18:45.228Z,936.53
2016-10-29T10:19:45.255Z,936.62
2016-10-29T10:20:45.317Z,936.64
2016-10-29T10:21:45.387Z,936.58
2016-10-29T10:22:45.416Z,936.61
2016-10-29T10:23:45.582Z,936.58
2016-10-29T10:24:45.528Z,936.63
2016-10-29T10:25:45.573Z,936.62
2016-10-29T10:26:45.637Z,936.61
2016-10-29T10:27:45.688Z,936.66
2016-10-29T10:28:45.731Z,936.66
2016-10-29T10:29:45.776Z,936.64
2016-10-29T10:30:45.832Z,936.7
2016-10-29T10:31:45.869Z,936.76
2016-10-29T10:32:45.921Z,936.7
2016-10-29T10:33:45.967Z,936.74
2016-10-29T10:34:46.037Z,936.72
2016-10-29T10:35:46.081Z,936.77
2016-10-29T10:36:46.145Z,936.79
2016-10-29T10:37:46.183Z,936.8
2016-10-29T10:38:46.247Z,936.72
2016-10-29T10:39:46.283Z,936.76
2016-10-29T10:40:46.332Z,936.76
2016-10-29T10:41:46.400Z,936.7
2016-10-29T10:42:46.453Z,936.77
2016-10-29T10:43:46.491Z,936.77
2016-10-29T10:44:46.546Z,936.8
2016-10-29T10:45:46.578Z,936.83
2016-10-29T10:46:46.634Z,936.75
2016-10-29T10:47:46.674Z,936.7
2016-10-29T10:48:46.755Z,936.78
2016-10-29T10:49:46.888Z,936.81
2016-10-29T10:50:46.837Z,936.81
2016-10-29T10:51:46.893Z,936.8
2016-10-29T10:52:46.924Z,936.85
2016-10-29T10:53:47.008Z,936.84
2016-10-29T10:54:47.027Z,936.84
2016-10-29T10:55:47.104Z,936.81
2016-10-29T10:56:47.129Z,936.84
2016-10-29T10:57:47.175Z,936.82
2016-10-29T10:58:47.227Z,936.86
2016-10-29T10:59:47.293Z,936.83
2016-10-29T11:00:47.358Z,936.85
2016-10-29T11:01:47.382Z,936.81
2016-10-29T11:02:47.454Z,936.88
2016-10-29T11:03:47.498Z,936.85
2016-10-29T11:04:47.548Z,936.85
2016-10-29T11:05:47.593Z,936.82
2016-10-29T11:06:47.650Z,936.89
2016-10-29T11:07:47.712Z,936.93
2016-10-29T11:08:47.732Z,936.93
2016-10-29T11:09:47.782Z,936.88
2016-10-29T11:10:47.834Z,936.84
2016-10-29T11:11:47.911Z,936.9
2016-10-29T11:12:47.947Z,936.89
2016-10-29T11:13:48.015Z,936.97
2016-10-29T11:14:48.052Z,936.98
2016-10-29T11:15:48.096Z,936.94
2016-10-29T11:16:48.147Z,937.04
2016-10-29T11:17:48.215Z,937.03
2016-10-29T11:18:48.237Z,937.1
2016-10-29T11:19:48.297Z,937.04
2016-10-29T11:20:48.356Z,937.02
2016-10-29T11:21:48.401Z,937.08
2016-10-29T11:22:48.448Z,937
2016-10-29T11:23:48.488Z,937.05
2016-10-29T11:24:48.548Z,937.06
2016-10-29T11:25:48.734Z,937.12
2016-10-29T11:26:48.640Z,937.2
2016-10-29T11:27:48.713Z,937.22
2016-10-29T11:28:48.755Z,937.13
2016-10-29T11:29:48.798Z,937.24
2016-10-29T11:30:48.941Z,937.21
2016-10-29T11:31:48.904Z,937.21
2016-10-29T11:32:48.957Z,937.21
2016-10-29T11:33:48.998Z,937.19
2016-10-29T11:34:49.070Z,937.14
2016-10-29T11:35:49.105Z,937.13
2016-10-29T11:36:49.159Z,937.18
2016-10-29T11:37:49.231Z,937.24
2016-10-29T11:38:49.260Z,937.25
2016-10-29T11:39:49.321Z,937.21
2016-10-29T11:40:49.370Z,937.15
2016-10-29T11:41:49.409Z,937.2
2016-10-29T11:42:49.468Z,937.24
2016-10-29T11:43:49.524Z,937.21
2016-10-29T11:44:49.547Z,937.2
2016-10-29T11:45:49.621Z,937.16
2016-10-29T11:46:49.680Z,937.17
2016-10-29T11:47:49.720Z,937.14
2016-10-29T11:48:49.748Z,937.21
2016-10-29T11:49:49.826Z,937.23
2016-10-29T11:50:49.859Z,937.23
2016-10-29T11:51:49.916Z,937.23
2016-10-29T11:52:49.953Z,937.23
2016-10-29T11:53:49.999Z,937.17
2016-10-29T11:54:50.065Z,937.23
2016-10-29T11:55:50.118Z,937.21
2016-10-29T11:56:50.170Z,937.26
2016-10-29T11:57:50.229Z,937.27
2016-10-29T11:58:50.281Z,937.23
2016-10-29T11:59:50.304Z,937.21
2016-10-29T12:00:50.367Z,937.31
2016-10-29T12:01:50.519Z,937.39
2016-10-29T12:02:50.478Z,937.27
2016-10-29T12:03:50.521Z,937.35
2016-10-29T12:04:50.570Z,937.33
2016-10-29T12:05:50.636Z,937.39
2016-10-29T12:06:50.660Z,937.44
2016-10-29T12:07:50.708Z,937.41
2016-10-29T12:08:50.781Z,937.37
2016-10-29T12:09:50.821Z,937.33
2016-10-29T12:10:50.874Z,937.43
2016-10-29T12:11:50.910Z,937.48
2016-10-29T12:12:50.999Z,937.49
2016-10-29T12:13:51.024Z,937.48
2016-10-29T12:14:51.089Z,937.48
2016-10-29T12:15:51.146Z,937.49
2016-10-29T12:16:51.190Z,937.54
2016-10-29T12:17:51.216Z,937.51
2016-10-29T12:18:51.293Z,937.42
2016-10-29T12:19:51.343Z,937.43
2016-10-29T12:20:51.382Z,937.52
2016-10-29T12:21:51.457Z,937.49
2016-10-29T12:22:51.481Z,937.51
2016-10-29T12:23:51.530Z,937.58
2016-10-29T12:24:51.586Z,937.52
2016-10-29T12:25:51.637Z,937.47
2016-10-29T12:26:51.701Z,937.58
2016-10-29T12:27:51.752Z,937.56
2016-10-29T12:28:51.802Z,937.52
2016-10-29T12:29:51.855Z,937.53
2016-10-29T12:30:51.893Z,937.58
2016-10-29T12:31:51.928Z,937.5